FQMA

Maputo Airport

Maputo, Mozambique
METAR FQMA 242000Z 06010KT 9999 BKN020 SCT070 28/24 Q1005 NOSIG
Observed Flight Rules
Feb-24 @ 20:00 UTC (15 minutes ago) Marginal Visual Flight Rules
Wind Visibility Clouds
60° at 10 knots 10,000+ meters
  • Broken at 2,000' AGL
  • Scattered at 7,000' AGL
Temperatures Readings
Current 28°C / 82°F
Dewpoint 24°C / 75°F
Humidity 79%
Altimeter 29.68" Hg
Pressure 1005 hPa
Elevation 44
METAR FQMA 242000Z 06010KT 9999 BKN020 SCT070 28/24 Q1005 NOSIG
Observed Flight Rules
Feb-24 @ 20:00 UTC
(15 minutes ago)
MVFR
Wind Visibility
60° at 10 knots 10,000+ meters
Clouds
  • Broken at 2,000' AGL
  • Scattered at 7,000' AGL
Temperature Dewpoint
28°C / 82°F 24°C / 75°F
Humidity Altimeter Pressure
79% 29.68" Hg 1005 hPa